Time;durP1;ratioP1;P1;durP2;ratioP2;P2;SDS_P1;SDS_P2;PMS_P1;PMS_P2;Temp;Humidity;BMP_temperature;BMP_pressure;BME280_temperature;BME280_humidity;BME280_pressure;Samples;Min_cycle;Max_cycle;Signal;HPM_P1;HPM_P2
2022/01/02 05:00:56;;;;;;;23.07;11.27;;;4.10;99.70;;;;;;5026343;28;20200;-64
2022/01/02 05:03:23;;;;;;;24.73;11.20;;;4.20;99.70;;;;;;5013246;28;20225;-64
2022/01/02 05:05:49;;;;;;;22.57;11.53;;;4.20;99.70;;;;;;5013078;28;20445;-67
2022/01/02 05:08:16;;;;;;;25.23;12.20;;;4.20;99.70;;;;;;5012662;28;20488;-63
2022/01/02 05:10:43;;;;;;;23.17;11.47;;;4.10;99.70;;;;;;5018090;28;20457;-64
2022/01/02 05:13:09;;;;;;;25.47;12.27;;;4.20;99.70;;;;;;5032960;28;20441;-63
2022/01/02 05:15:36;;;;;;;21.80;10.80;;;4.10;99.70;;;;;;5032811;28;20444;-64
2022/01/02 05:18:04;;;;;;;23.97;11.33;;;4.10;99.70;;;;;;5032408;28;20475;-63
2022/01/02 05:20:31;;;;;;;22.33;11.03;;;3.90;99.70;;;;;;5016747;28;20474;-60
2022/01/02 05:22:57;;;;;;;24.93;12.00;;;3.80;99.70;;;;;;5012962;28;20452;-63
2022/01/02 05:25:24;;;;;;;24.10;11.53;;;3.70;99.70;;;;;;5013050;28;20517;-61
2022/01/02 05:27:51;;;;;;;21.20;11.23;;;3.60;99.70;;;;;;5012215;28;20480;-62
2022/01/02 05:30:17;;;;;;;26.00;12.20;;;3.50;99.70;;;;;;5025972;28;20522;-62
2022/01/02 05:32:44;;;;;;;22.57;11.20;;;3.50;99.70;;;;;;5032530;28;20479;-63
2022/01/02 05:35:12;;;;;;;24.43;11.80;;;3.60;99.70;;;;;;5032555;28;21143;-62
2022/01/02 05:37:39;;;;;;;20.90;10.90;;;3.40;99.70;;;;;;5032308;28;20449;-62
2022/01/02 05:40:07;;;;;;;23.80;11.40;;;3.40;99.70;;;;;;5020124;28;20469;-64
2022/01/02 05:42:33;;;;;;;24.27;11.27;;;3.30;99.70;;;;;;5012527;28;20477;-65
2022/01/02 05:45:00;;;;;;;23.43;11.93;;;3.30;99.70;;;;;;5012553;28;20450;-63
2022/01/02 05:47:27;;;;;;;24.40;12.30;;;3.40;99.70;;;;;;5012335;28;20492;-64
2022/01/02 05:49:53;;;;;;;23.67;11.20;;;3.50;99.70;;;;;;5013153;28;20461;-62
2022/01/02 05:52:21;;;;;;;21.40;10.57;;;3.50;99.70;;;;;;5012385;28;20844;-64
2022/01/02 05:54:48;;;;;;;25.53;11.47;;;3.50;99.70;;;;;;5010874;28;20477;-64
2022/01/02 05:57:15;;;;;;;23.60;12.00;;;3.40;99.70;;;;;;5012303;28;20437;-61
2022/01/02 05:59:41;;;;;;;23.10;11.67;;;3.40;99.70;;;;;;5017233;28;20468;-61
2022/01/02 06:02:08;;;;;;;23.00;11.70;;;3.50;99.70;;;;;;5031824;28;20440;-57
2022/01/02 06:04:35;;;;;;;25.20;11.70;;;3.50;99.70;;;;;;5031965;28;20453;-63
2022/01/02 06:07:01;;;;;;;20.83;10.87;;;3.50;99.70;;;;;;5031823;28;20531;-61
2022/01/02 06:09:29;;;;;;;22.90;11.43;;;3.60;99.70;;;;;;5027279;28;20900;-59
2022/01/02 06:11:56;;;;;;;18.93;10.03;;;3.60;99.70;;;;;;5012136;28;20442;-60
2022/01/02 06:14:23;;;;;;;19.53;10.73;;;3.70;99.70;;;;;;5012096;28;20453;-60
2022/01/02 06:16:50;;;;;;;20.93;11.33;;;3.70;99.70;;;;;;5011942;28;20446;-62
2022/01/02 06:19:16;;;;;;;21.10;10.30;;;3.70;99.70;;;;;;5013267;28;20476;-60
2022/01/02 06:21:43;;;;;;;22.00;11.20;;;3.70;99.70;;;;;;5031665;28;20445;-59
2022/01/02 06:24:10;;;;;;;20.90;10.00;;;3.60;99.70;;;;;;5031601;28;20453;-63
2022/01/02 06:26:38;;;;;;;16.93;9.30;;;3.70;99.70;;;;;;5031586;28;20449;-63
2022/01/02 06:29:05;;;;;;;17.10;9.07;;;3.80;99.70;;;;;;5030442;28;20484;-64
2022/01/02 06:31:31;;;;;;;19.10;9.17;;;3.80;99.70;;;;;;5011767;28;20825;-60
2022/01/02 06:33:58;;;;;;;18.40;9.40;;;3.80;99.70;;;;;;5011632;28;20472;-60
2022/01/02 06:36:25;;;;;;;20.00;9.60;;;3.90;99.70;;;;;;5011692;28;20453;-63
2022/01/02 06:38:52;;;;;;;20.23;9.43;;;4.10;99.70;;;;;;5011124;28;20457;-63
2022/01/02 06:41:19;;;;;;;22.97;9.57;;;4.00;99.70;;;;;;5029592;28;20448;-64
2022/01/02 06:43:51;;;;;;;17.13;8.60;;;4.00;99.70;;;;;;5031291;28;20827;-64
2022/01/02 06:46:18;;;;;;;17.37;8.87;;;3.90;99.70;;;;;;5031410;28;20448;-62
2022/01/02 06:48:45;;;;;;;19.93;8.87;;;3.90;99.70;;;;;;5030643;28;20484;-64
2022/01/02 06:51:12;;;;;;;16.33;8.83;;;4.00;99.70;;;;;;5014044;28;20454;-65
2022/01/02 06:53:39;;;;;;;18.90;9.30;;;4.20;99.70;;;;;;5011052;28;20442;-64
2022/01/02 06:56:05;;;;;;;14.80;7.83;;;4.20;99.70;;;;;;5011562;28;20446;-62
2022/01/02 06:58:37;;;;;;;17.77;8.73;;;4.30;99.70;;;;;;5010832;28;20445;-64
2022/01/02 07:01:05;;;;;;;16.43;8.37;;;4.30;99.70;;;;;;5026921;28;20452;-62
2022/01/02 07:03:33;;;;;;;13.80;7.77;;;4.40;99.70;;;;;;5031029;28;20455;-65
2022/01/02 07:06:00;;;;;;;18.73;8.67;;;4.40;99.70;;;;;;5033249;28;20889;-62
2022/01/02 07:08:27;;;;;;;17.53;8.67;;;4.30;99.70;;;;;;5034491;28;20476;-64
2022/01/02 07:10:55;;;;;;;16.83;8.00;;;4.30;99.70;;;;;;5020801;28;20519;-63
2022/01/02 07:13:21;;;;;;;16.60;8.93;;;4.30;99.70;;;;;;5015314;28;20445;-63
2022/01/02 07:15:48;;;;;;;17.40;8.70;;;4.30;99.70;;;;;;5015334;28;20445;-61
2022/01/02 07:18:16;;;;;;;17.37;8.30;;;4.50;99.70;;;;;;5014771;28;20448;-65
2022/01/02 07:20:43;;;;;;;16.97;7.93;;;4.40;99.70;;;;;;5027731;28;20445;-61
2022/01/02 07:23:10;;;;;;;17.10;8.30;;;4.50;99.70;;;;;;5034903;28;20444;-62
2022/01/02 07:25:37;;;;;;;17.67;9.07;;;4.50;99.70;;;;;;5034958;28;20447;-62
2022/01/02 07:28:03;;;;;;;17.30;8.47;;;4.50;99.70;;;;;;5034297;28;20484;-62
2022/01/02 07:30:30;;;;;;;16.37;7.70;;;4.60;99.70;;;;;;5023863;28;20469;-65
2022/01/02 07:33:01;;;;;;;18.60;8.77;;;4.60;99.70;;;;;;5014941;28;20942;-64
2022/01/02 07:35:30;;;;;;;15.97;7.97;;;4.60;99.70;;;;;;5014959;28;20450;-64
2022/01/02 07:37:58;;;;;;;16.67;7.90;;;4.80;99.70;;;;;;5014343;28;20453;-64
2022/01/02 07:40:25;;;;;;;16.90;8.67;;;4.60;99.70;;;;;;5024292;28;20949;-63
2022/01/02 07:42:51;;;;;;;19.50;8.60;;;4.50;99.70;;;;;;5034593;28;20444;-63
2022/01/02 07:45:18;;;;;;;17.93;9.10;;;4.70;99.70;;;;;;5034434;28;20447;-61
2022/01/02 07:47:45;;;;;;;18.07;8.23;;;4.90;99.70;;;;;;5034161;28;20484;-64
2022/01/02 07:50:12;;;;;;;14.20;7.80;;;4.80;99.70;;;;;;5023219;28;20552;-64
2022/01/02 07:52:41;;;;;;;18.87;9.10;;;4.70;99.70;;;;;;5014637;28;20456;-61
2022/01/02 07:55:08;;;;;;;17.80;9.03;;;4.80;99.70;;;;;;5014114;28;20930;-66
2022/01/02 07:57:36;;;;;;;16.00;8.00;;;4.50;99.70;;;;;;5014488;28;20441;-62
2022/01/02 08:00:04;;;;;;;17.23;8.67;;;4.50;99.70;;;;;;5022198;28;20464;-63
2022/01/02 08:02:31;;;;;;;18.17;9.17;;;4.50;99.70;;;;;;5034197;28;20876;-64
2022/01/02 08:04:57;;;;;;;21.90;10.23;;;4.40;99.70;;;;;;5034121;28;20449;-62
2022/01/02 08:07:24;;;;;;;16.90;8.60;;;4.10;99.70;;;;;;5034074;28;20444;-64
2022/01/02 08:09:52;;;;;;;18.70;9.20;;;4.10;99.70;;;;;;5026550;28;20469;-64
2022/01/02 08:12:19;;;;;;;19.83;9.60;;;4.00;99.70;;;;;;5014343;28;20453;-61
2022/01/02 08:14:45;;;;;;;17.10;9.07;;;4.20;99.70;;;;;;5014159;28;20449;-62
2022/01/02 08:17:12;;;;;;;27.07;10.60;;;4.40;99.70;;;;;;5013504;28;20870;-62
2022/01/02 08:19:39;;;;;;;29.27;13.00;;;4.30;99.70;;;;;;5018212;28;20464;-64
2022/01/02 08:22:05;;;;;;;25.33;11.87;;;4.40;99.70;;;;;;5033873;28;20445;-61
2022/01/02 08:24:32;;;;;;;39.10;14.93;;;4.50;99.70;;;;;;5033731;28;20484;-62
2022/01/02 08:27:00;;;;;;;45.43;16.23;;;4.40;99.70;;;;;;5033748;28;20440;-62
2022/01/02 08:29:27;;;;;;;43.50;17.57;;;4.30;99.70;;;;;;5023492;28;20493;-61
2022/01/02 08:31:54;;;;;;;35.17;15.20;;;4.40;99.70;;;;;;5004819;28;20867;-65
2022/01/02 08:34:20;;;;;;;29.37;12.60;;;4.40;99.70;;;;;;5007575;28;20454;-60
2022/01/02 08:36:47;;;;;;;31.23;13.60;;;4.50;99.70;;;;;;5012215;28;20450;-61
2022/01/02 08:39:14;;;;;;;24.20;11.63;;;4.50;99.70;;;;;;5005078;28;20533;-66
2022/01/02 08:41:40;;;;;;;28.13;12.00;;;4.50;99.70;;;;;;5010391;28;20456;-61
2022/01/02 08:44:08;;;;;;;22.10;10.00;;;4.70;99.70;;;;;;5005748;28;20838;-62
2022/01/02 08:46:35;;;;;;;22.27;10.20;;;4.80;99.70;;;;;;5004928;28;20504;-61
2022/01/02 08:49:02;;;;;;;20.20;10.10;;;4.70;99.70;;;;;;5000526;28;20488;-60
2022/01/02 08:51:29;;;;;;;21.30;10.53;;;4.80;99.70;;;;;;5012213;28;20446;-61
2022/01/02 08:53:56;;;;;;;24.60;10.87;;;4.90;99.70;;;;;;5011009;28;20952;-62
2022/01/02 08:56:23;;;;;;;22.97;10.90;;;5.10;99.70;;;;;;5011124;28;20433;-63
2022/01/02 08:58:50;;;;;;;26.83;11.67;;;5.20;99.70;;;;;;5010233;28;20466;-61
2022/01/02 09:01:18;;;;;;;23.03;10.77;;;5.40;99.70;;;;;;5009902;28;20453;-62
2022/01/02 09:03:46;;;;;;;26.53;12.07;;;5.50;99.70;;;;;;5009493;28;20450;-61
2022/01/02 09:06:12;;;;;;;20.70;10.03;;;5.80;99.70;;;;;;5000594;28;20481;-60
2022/01/02 09:08:39;;;;;;;21.73;9.90;;;5.90;99.70;;;;;;5009297;28;20481;-61
2022/01/02 09:11:06;;;;;;;20.13;9.10;;;6.00;99.70;;;;;;5010040;28;20504;-64
2022/01/02 09:13:32;;;;;;;16.33;8.67;;;6.10;99.70;;;;;;4994701;28;20450;-63
2022/01/02 09:15:59;;;;;;;31.93;14.30;;;6.40;99.70;;;;;;4995304;28;20461;-64
2022/01/02 09:18:27;;;;;;;32.90;13.57;;;6.40;99.70;;;;;;4993412;28;20821;-64
2022/01/02 09:20:54;;;;;;;26.80;12.37;;;6.30;99.70;;;;;;5011022;28;20445;-61
2022/01/02 09:23:21;;;;;;;21.30;10.80;;;6.30;99.70;;;;;;5011279;28;20449;-65
2022/01/02 09:25:47;;;;;;;22.10;11.07;;;6.50;99.70;;;;;;5009405;28;20831;-62
2022/01/02 09:28:14;;;;;;;24.90;12.30;;;6.60;99.70;;;;;;5010273;28;20485;-60
2022/01/02 09:30:41;;;;;;;21.30;11.10;;;6.70;99.70;;;;;;5000406;28;20544;-62
2022/01/02 09:33:08;;;;;;;19.93;10.10;;;6.70;99.70;;;;;;4999628;28;20831;-64
2022/01/02 09:35:38;;;;;;;17.70;9.33;;;6.70;99.70;;;;;;4995345;28;20596;-63
2022/01/02 09:38:04;;;;;;;17.37;9.70;;;6.90;99.70;;;;;;4993789;28;20458;-64
2022/01/02 09:40:32;;;;;;;20.70;9.60;;;6.70;99.70;;;;;;5003216;28;20466;-63
2022/01/02 09:43:00;;;;;;;15.07;7.80;;;6.80;99.70;;;;;;5011024;28;20818;-62
2022/01/02 09:45:27;;;;;;;19.20;8.43;;;6.90;99.70;;;;;;5008974;28;20433;-63
2022/01/02 09:47:54;;;;;;;15.80;7.83;;;7.00;99.70;;;;;;5010470;28;20453;-64
2022/01/02 09:50:21;;;;;;;17.80;8.20;;;7.20;99.70;;;;;;5013305;28;21008;-63
2022/01/02 09:52:51;;;;;;;18.30;9.00;;;7.20;99.70;;;;;;5001626;28;20446;-64
2022/01/02 09:55:18;;;;;;;15.00;8.40;;;7.00;99.70;;;;;;5003682;28;21017;-62
2022/01/02 09:57:45;;;;;;;17.27;9.73;;;7.00;99.70;;;;;;5003887;28;20451;-63
2022/01/02 10:00:13;;;;;;;21.67;10.40;;;6.90;99.70;;;;;;4998161;28;20470;-65
2022/01/02 10:03:00;;;;;;;22.00;9.10;;;7.00;99.70;;;;;;4999977;28;20442;-63
2022/01/02 10:05:28;;;;;;;23.70;10.67;;;7.00;99.70;;;;;;5002374;28;20959;-64
2022/01/02 10:07:57;;;;;;;23.80;10.63;;;7.00;99.70;;;;;;5009928;28;20989;-65
2022/01/02 10:10:34;;;;;;;20.00;10.40;;;7.00;99.70;;;;;;5007995;28;20508;-63
2022/01/02 10:13:02;;;;;;;18.77;9.47;;;7.10;99.70;;;;;;5010469;28;20831;-62
2022/01/02 10:15:29;;;;;;;17.60;8.80;;;7.20;99.70;;;;;;5002934;28;20457;-59
2022/01/02 10:18:01;;;;;;;17.73;9.40;;;7.10;99.70;;;;;;4992119;28;20450;-64
2022/01/02 10:20:31;;;;;;;16.33;8.40;;;7.20;99.70;;;;;;4994157;28;20466;-63
2022/01/02 10:23:07;;;;;;;16.20;8.70;;;7.10;99.70;;;;;;5002316;28;20453;-61
2022/01/02 10:25:42;;;;;;;17.70;8.77;;;7.10;99.70;;;;;;5008287;28;20978;-63
2022/01/02 10:28:22;;;;;;;21.27;10.67;;;7.20;99.70;;;;;;5012591;28;20456;-61
2022/01/02 10:30:51;;;;;;;18.90;9.43;;;7.30;99.70;;;;;;5004137;28;20502;-63
2022/01/02 10:33:17;;;;;;;17.63;9.00;;;7.30;99.70;;;;;;5005975;28;20473;-66
2022/01/02 10:35:44;;;;;;;17.10;9.20;;;7.30;99.70;;;;;;5005045;28;20465;-62
2022/01/02 10:38:18;;;;;;;19.53;9.40;;;7.30;99.70;;;;;;4998888;28;20449;-63
2022/01/02 10:40:45;;;;;;;27.10;11.83;;;7.30;99.70;;;;;;4994524;28;20454;-65
2022/01/02 10:43:24;;;;;;;17.50;9.33;;;7.20;99.70;;;;;;5002661;28;20511;-63
2022/01/02 10:45:53;;;;;;;18.60;9.53;;;7.20;99.70;;;;;;4994005;28;20454;-64
2022/01/02 10:48:33;;;;;;;19.70;10.63;;;7.10;99.70;;;;;;4995084;28;20463;-63
2022/01/02 10:51:02;;;;;;;21.50;11.37;;;7.00;99.70;;;;;;5003309;28;20442;-63
2022/01/02 10:53:31;;;;;;;21.13;11.27;;;6.90;99.70;;;;;;5001414;28;20468;-64
2022/01/02 10:55:58;;;;;;;19.50;9.70;;;7.00;99.70;;;;;;5008391;28;20468;-64
2022/01/02 10:58:26;;;;;;;18.70;9.90;;;7.10;99.70;;;;;;5000486;28;20442;-62
2022/01/02 11:00:53;;;;;;;18.50;9.80;;;7.10;99.70;;;;;;5003073;28;20445;-62
2022/01/02 11:03:24;;;;;;;17.73;9.70;;;7.20;99.70;;;;;;5019561;28;20447;-65
2022/01/02 11:05:56;;;;;;;20.73;10.83;;;7.40;99.70;;;;;;4994926;28;20446;-63
2022/01/02 11:08:27;;;;;;;17.53;9.60;;;7.20;99.70;;;;;;4991927;28;20505;-62
2022/01/02 11:10:57;;;;;;;27.33;8.90;;;7.30;99.70;;;;;;5005860;28;20470;-62
2022/01/02 11:13:24;;;;;;;20.87;10.20;;;7.50;99.70;;;;;;5005049;28;20481;-63
2022/01/02 11:15:51;;;;;;;20.70;9.90;;;7.50;99.70;;;;;;5004870;28;20464;-63
2022/01/02 11:18:18;;;;;;;19.60;9.23;;;7.60;99.70;;;;;;5007976;28;20441;-62
2022/01/02 11:20:45;;;;;;;17.33;8.83;;;7.60;99.70;;;;;;5007394;28;20965;-64
2022/01/02 11:23:18;;;;;;;16.00;8.83;;;7.60;99.70;;;;;;5000815;28;20454;-64
2022/01/02 11:25:51;;;;;;;16.70;9.70;;;7.60;99.70;;;;;;5007924;28;20445;-64
2022/01/02 11:28:34;;;;;;;17.03;9.37;;;7.70;99.70;;;;;;5001679;28;20541;-63
2022/01/02 11:31:02;;;;;;;17.07;9.00;;;7.70;99.70;;;;;;5005907;28;20446;-62
2022/01/02 11:33:33;;;;;;;19.17;9.40;;;7.80;99.70;;;;;;5013121;28;20461;-65
2022/01/02 11:36:03;;;;;;;21.97;10.80;;;7.80;99.70;;;;;;5006689;28;20445;-64
2022/01/02 11:38:44;;;;;;;22.77;11.27;;;7.80;99.70;;;;;;5008536;28;20461;-67
2022/01/02 11:41:13;;;;;;;20.13;9.83;;;7.80;99.70;;;;;;4997396;28;20510;-61
2022/01/02 11:43:57;;;;;;;20.30;10.10;;;7.80;99.70;;;;;;5003692;28;20493;-66
2022/01/02 11:46:27;;;;;;;33.63;14.90;;;7.80;99.70;;;;;;4998089;28;20454;-63
2022/01/02 11:49:28;;;;;;;23.37;11.30;;;7.90;99.70;;;;;;4998252;28;20920;-62
2022/01/02 11:52:22;;;;;;;28.60;13.60;;;7.90;99.70;;;;;;5003377;28;20456;-67
2022/01/02 11:54:51;;;;;;;21.30;11.10;;;7.90;99.70;;;;;;5004186;28;20508;-61
2022/01/02 11:57:51;;;;;;;24.90;11.97;;;8.00;99.70;;;;;;5009493;28;20810;-64
2022/01/02 12:00:46;;;;;;;26.13;12.73;;;7.90;99.70;;;;;;5005855;28;20608;-64
2022/01/02 12:03:47;;;;;;;19.67;10.50;;;7.90;99.70;;;;;;5005713;28;20445;-62
2022/01/02 12:06:16;;;;;;;24.70;11.10;;;8.00;99.70;;;;;;5007045;28;20538;-63
2022/01/02 12:08:42;;;;;;;24.67;12.37;;;8.00;99.70;;;;;;5006827;28;20481;-63
2022/01/02 12:11:41;;;;;;;24.37;11.87;;;8.00;99.70;;;;;;5011797;28;20457;-65
2022/01/02 12:14:10;;;;;;;19.53;9.57;;;8.10;99.70;;;;;;5011083;28;20484;-60
2022/01/02 12:16:39;;;;;;;17.30;9.13;;;8.30;99.70;;;;;;5009528;28;20545;-61
2022/01/02 12:19:08;;;;;;;20.20;9.07;;;8.40;99.70;;;;;;5005600;28;20536;-61
2022/01/02 12:21:35;;;;;;;19.17;9.03;;;8.50;99.70;;;;;;5011057;28;20511;-64
2022/01/02 12:24:07;;;;;;;17.30;9.10;;;8.60;99.70;;;;;;5005406;28;20465;-62
2022/01/02 12:26:36;;;;;;;17.37;8.80;;;8.70;99.70;;;;;;5011354;28;20462;-61
2022/01/02 12:29:06;;;;;;;16.63;8.20;;;8.80;99.70;;;;;;5010085;28;20509;-61
2022/01/02 12:31:34;;;;;;;14.83;7.10;;;9.00;99.70;;;;;;5006168;28;20469;-62
2022/01/02 12:34:07;;;;;;;15.10;6.87;;;9.20;99.70;;;;;;5005476;28;20639;-61
2022/01/02 12:36:35;;;;;;;10.40;5.03;;;9.40;99.70;;;;;;5011336;28;20485;-63
2022/01/02 12:39:04;;;;;;;10.90;5.60;;;9.70;99.70;;;;;;5011130;28;20473;-64
2022/01/02 12:41:32;;;;;;;14.97;6.90;;;9.90;99.70;;;;;;5011901;28;20445;-60
2022/01/02 12:44:01;;;;;;;14.43;7.47;;;10.10;99.70;;;;;;5011180;28;20452;-59
2022/01/02 12:46:42;;;;;;;15.33;7.27;;;10.40;99.70;;;;;;5003910;28;21188;-61
2022/01/02 12:49:12;;;;;;;12.47;6.10;;;10.60;99.70;;;;;;5006083;28;20493;-59
2022/01/02 12:51:41;;;;;;;13.53;6.47;;;10.70;99.70;;;;;;5011461;28;20465;-63
2022/01/02 12:54:09;;;;;;;11.50;5.60;;;10.70;99.70;;;;;;5007036;28;20454;-63
2022/01/02 12:56:42;;;;;;;11.80;5.80;;;10.80;99.70;;;;;;5006247;28;20457;-61
2022/01/02 12:59:17;;;;;;;10.57;5.00;;;10.90;99.70;;;;;;5007091;28;20469;-64
2022/01/02 13:02:05;;;;;;;9.13;4.83;;;11.10;99.70;;;;;;5008519;28;20456;-62
2022/01/02 13:04:34;;;;;;;7.20;4.40;;;11.30;99.70;;;;;;4988814;28;20459;-63
2022/01/02 13:07:03;;;;;;;9.87;4.70;;;11.30;99.70;;;;;;5002921;28;20538;-63
2022/01/02 13:09:37;;;;;;;8.30;4.60;;;11.40;99.70;;;;;;5007987;28;20543;-61
2022/01/02 13:12:09;;;;;;;10.03;4.03;;;11.50;99.70;;;;;;4996019;28;20443;-55
2022/01/02 13:14:41;;;;;;;6.93;3.70;;;11.60;99.70;;;;;;4995937;28;20446;-60
2022/01/02 13:17:11;;;;;;;6.00;3.60;;;11.60;99.70;;;;;;5001627;28;20548;-65
2022/01/02 13:19:42;;;;;;;9.60;3.60;;;11.60;99.70;;;;;;5003624;28;20473;-61
2022/01/02 13:22:09;;;;;;;5.70;3.00;;;11.60;99.70;;;;;;5002911;28;20453;-61
2022/01/02 13:24:37;;;;;;;4.40;2.60;;;11.50;99.70;;;;;;4999846;28;20445;-61
2022/01/02 13:27:06;;;;;;;8.33;3.90;;;11.60;99.70;;;;;;4999417;28;20466;-62
2022/01/02 13:29:34;;;;;;;9.90;5.30;;;11.80;99.70;;;;;;5005545;28;20520;-60
2022/01/02 13:32:14;;;;;;;12.87;7.00;;;11.80;99.70;;;;;;5001509;28;20447;-65
2022/01/02 13:34:43;;;;;;;12.10;5.27;;;11.80;99.70;;;;;;5000448;28;20489;-62
2022/01/02 13:37:11;;;;;;;9.50;4.90;;;11.70;99.70;;;;;;5009879;28;20886;-62
2022/01/02 13:39:40;;;;;;;10.10;5.00;;;11.90;99.70;;;;;;5005001;28;20469;-63
2022/01/02 13:42:08;;;;;;;7.63;4.10;;;11.80;99.70;;;;;;5010644;28;20453;-63
2022/01/02 13:44:39;;;;;;;9.53;4.23;;;11.70;99.70;;;;;;5011594;28;20986;-62
2022/01/02 13:47:06;;;;;;;34.20;14.20;;;11.60;99.70;;;;;;5008313;28;20466;-62
2022/01/02 13:49:45;;;;;;;9.33;4.83;;;11.60;99.70;;;;;;5006042;28;20481;-62
2022/01/02 13:52:13;;;;;;;11.93;4.60;;;11.50;99.70;;;;;;4998993;28;20446;-62
2022/01/02 13:54:39;;;;;;;10.87;4.07;;;11.40;99.70;;;;;;5005426;28;20450;-60
2022/01/02 13:57:08;;;;;;;7.30;3.87;;;11.30;99.70;;;;;;5012004;28;20498;-62
2022/01/02 13:59:35;;;;;;;7.20;3.60;;;11.40;99.70;;;;;;5013259;28;20465;-62
2022/01/02 14:02:02;;;;;;;11.73;3.73;;;11.40;99.70;;;;;;4999281;28;20449;-61
2022/01/02 14:04:49;;;;;;;6.77;3.30;;;11.30;99.70;;;;;;5008956;28;20445;-62
2022/01/02 14:07:17;;;;;;;8.03;3.60;;;11.30;99.70;;;;;;5006647;28;20477;-63
2022/01/02 14:09:51;;;;;;;11.37;4.73;;;11.30;99.70;;;;;;5003437;28;20489;-60
2022/01/02 14:12:20;;;;;;;11.00;4.80;;;11.40;99.70;;;;;;5008145;28;20480;-61
2022/01/02 14:14:50;;;;;;;12.07;5.43;;;11.20;99.70;;;;;;5002957;28;20458;-63
2022/01/02 14:17:30;;;;;;;8.30;4.47;;;11.10;99.70;;;;;;4999301;28;21009;-62
2022/01/02 14:19:59;;;;;;;7.80;3.70;;;11.10;99.70;;;;;;5002394;28;20994;-60
2022/01/02 14:22:27;;;;;;;10.90;4.10;;;11.10;99.70;;;;;;5003776;28;20801;-62
2022/01/02 14:24:56;;;;;;;7.00;3.40;;;11.10;99.70;;;;;;5002310;28;20523;-62
2022/01/02 14:27:24;;;;;;;7.87;3.70;;;11.00;99.70;;;;;;5002512;28;20472;-60
2022/01/02 14:29:52;;;;;;;7.57;3.67;;;11.10;99.70;;;;;;5003510;28;20490;-60
2022/01/02 14:32:20;;;;;;;7.43;3.70;;;11.10;99.70;;;;;;4996032;28;20442;-61
2022/01/02 14:34:47;;;;;;;7.23;4.00;;;11.10;99.70;;;;;;5009504;28;20445;-61
2022/01/02 14:37:16;;;;;;;8.10;3.77;;;11.10;99.70;;;;;;5002652;28;20466;-65
2022/01/02 14:39:46;;;;;;;6.20;3.50;;;11.10;99.70;;;;;;5001768;28;20992;-61
2022/01/02 14:42:13;;;;;;;6.13;2.90;;;11.10;99.70;;;;;;5008134;28;20453;-59
2022/01/02 14:44:41;;;;;;;6.70;3.50;;;11.00;99.70;;;;;;5008896;28;20453;-60
2022/01/02 14:47:08;;;;;;;8.23;3.30;;;11.10;99.70;;;;;;5008050;28;20453;-58
2022/01/02 14:49:35;;;;;;;6.70;3.10;;;11.00;99.70;;;;;;5003475;28;20491;-61
2022/01/02 14:52:02;;;;;;;8.07;3.10;;;10.90;99.70;;;;;;5002798;28;20458;-60
2022/01/02 14:54:28;;;;;;;5.57;3.00;;;11.00;99.70;;;;;;5009019;28;20456;-61
2022/01/02 14:56:57;;;;;;;5.03;2.90;;;11.10;99.70;;;;;;5008963;28;20503;-62
2022/01/02 14:59:23;;;;;;;5.87;3.20;;;11.10;99.70;;;;;;5009113;28;20492;-67
2022/01/02 15:01:50;;;;;;;6.60;3.30;;;11.00;99.70;;;;;;5010751;28;20448;-60
2022/01/02 15:04:17;;;;;;;7.77;3.40;;;11.00;99.70;;;;;;5005242;28;20474;-63
2022/01/02 15:06:44;;;;;;;9.50;3.50;;;11.10;99.70;;;;;;5003359;28;20449;-61
2022/01/02 15:09:11;;;;;;;8.00;3.10;;;11.10;99.70;;;;;;5005703;28;20544;-55
2022/01/02 15:11:38;;;;;;;6.43;3.17;;;11.20;99.70;;;;;;5009128;28;21104;-65
2022/01/02 15:14:06;;;;;;;6.53;3.17;;;11.30;99.70;;;;;;5007982;28;20457;-63
2022/01/02 15:16:33;;;;;;;5.50;2.97;;;11.40;99.70;;;;;;5009069;28;20811;-62
2022/01/02 15:19:00;;;;;;;6.37;3.20;;;11.40;99.70;;;;;;5003667;28;20518;-61
2022/01/02 15:21:27;;;;;;;6.13;2.87;;;11.30;99.70;;;;;;5005568;28;20464;-61
2022/01/02 15:23:55;;;;;;;5.80;3.00;;;11.40;99.70;;;;;;5006564;28;20536;-62
2022/01/02 15:26:22;;;;;;;6.47;3.30;;;11.40;99.70;;;;;;5006808;28;20958;-64
2022/01/02 15:28:48;;;;;;;6.13;3.30;;;11.20;99.70;;;;;;5000204;28;20472;-61
2022/01/02 15:31:18;;;;;;;6.33;2.77;;;11.10;99.70;;;;;;5013161;28;20481;-61
2022/01/02 15:33:45;;;;;;;6.70;3.40;;;11.10;99.70;;;;;;5013150;28;20449;-63
2022/01/02 15:36:12;;;;;;;6.30;3.20;;;11.00;99.70;;;;;;5012800;28;20939;-62
2022/01/02 15:38:39;;;;;;;8.60;2.80;;;10.90;99.70;;;;;;5003424;28;20858;-60
2022/01/02 15:41:06;;;;;;;6.90;2.93;;;10.80;99.70;;;;;;5006816;28;20498;-64
2022/01/02 15:43:33;;;;;;;5.23;2.80;;;10.70;99.70;;;;;;5008407;28;20456;-62
2022/01/02 15:46:01;;;;;;;5.93;2.80;;;10.60;99.70;;;;;;5011821;28;20452;-60
2022/01/02 15:48:29;;;;;;;5.97;3.10;;;10.50;99.70;;;;;;5006620;28;20462;-64
2022/01/02 15:50:57;;;;;;;8.90;3.37;;;10.50;99.70;;;;;;5000826;28;20486;-60
2022/01/02 15:53:23;;;;;;;10.50;3.07;;;10.40;99.70;;;;;;5005113;28;20467;-59
2022/01/02 15:55:50;;;;;;;7.20;3.00;;;10.30;99.70;;;;;;5002917;28;20461;-60
2022/01/02 15:58:17;;;;;;;7.43;3.40;;;10.40;99.70;;;;;;5001062;28;20465;-65
2022/01/02 16:00:44;;;;;;;8.80;3.27;;;10.50;99.70;;;;;;5021333;28;20465;-61
2022/01/02 16:03:10;;;;;;;7.93;3.30;;;10.40;99.70;;;;;;5012008;28;20953;-59
2022/01/02 16:05:38;;;;;;;6.07;3.40;;;10.30;99.70;;;;;;5013791;28;20449;-62
2022/01/02 16:08:05;;;;;;;6.40;3.30;;;10.30;99.70;;;;;;5005546;28;20490;-62
2022/01/02 16:10:32;;;;;;;6.13;3.30;;;10.20;99.70;;;;;;5007286;28;20498;-62
2022/01/02 16:12:58;;;;;;;7.87;3.53;;;10.10;99.70;;;;;;5005577;28;20451;-62
2022/01/02 16:15:25;;;;;;;7.73;3.30;;;10.10;99.70;;;;;;5009652;28;21005;-63
2022/01/02 16:17:52;;;;;;;10.73;4.30;;;10.00;99.70;;;;;;5005857;28;20451;-63
2022/01/02 16:20:19;;;;;;;10.20;3.60;;;9.90;99.70;;;;;;4996057;28;20477;-61
2022/01/02 16:22:47;;;;;;;7.70;3.90;;;9.90;99.70;;;;;;5007303;28;20451;-61
2022/01/02 16:25:14;;;;;;;6.63;3.63;;;9.90;99.70;;;;;;5003555;28;20465;-61
2022/01/02 16:27:41;;;;;;;6.20;3.10;;;9.90;99.70;;;;;;5015255;28;20839;-63
2022/01/02 16:30:09;;;;;;;7.23;3.30;;;9.90;99.70;;;;;;5007780;28;20465;-63
2022/01/02 16:32:36;;;;;;;7.77;3.73;;;10.00;99.70;;;;;;5009669;28;20454;-61
2022/01/02 16:35:02;;;;;;;7.80;3.90;;;10.00;99.70;;;;;;5013318;28;20449;-62
2022/01/02 16:37:29;;;;;;;7.43;3.77;;;9.90;99.70;;;;;;5012370;28;20454;-64
2022/01/02 16:39:57;;;;;;;8.80;4.03;;;9.90;99.70;;;;;;5012054;28;20488;-65
2022/01/02 16:42:24;;;;;;;11.83;5.37;;;9.80;99.70;;;;;;5011114;28;20461;-64
2022/01/02 16:44:51;;;;;;;10.83;4.87;;;9.80;99.70;;;;;;5012521;28;20449;-61
2022/01/02 16:47:18;;;;;;;10.37;4.43;;;9.80;99.70;;;;;;5014515;28;20453;-63
2022/01/02 16:49:48;;;;;;;10.17;4.57;;;9.70;99.70;;;;;;5012252;28;20564;-60
2022/01/02 16:52:15;;;;;;;10.43;4.33;;;9.70;99.70;;;;;;5009826;28;20473;-63
2022/01/02 16:54:42;;;;;;;11.57;4.60;;;9.60;99.70;;;;;;5010228;28;20955;-60
2022/01/02 16:57:10;;;;;;;9.37;4.60;;;9.60;99.70;;;;;;5013168;28;20457;-63
2022/01/02 16:59:37;;;;;;;11.30;5.30;;;9.50;99.70;;;;;;5010406;28;20624;-64
2022/01/02 17:02:04;;;;;;;18.60;5.70;;;9.50;99.70;;;;;;5010034;28;20438;-62
2022/01/02 17:04:31;;;;;;;14.00;5.50;;;9.40;99.70;;;;;;5010543;28;20553;-62
2022/01/02 17:06:58;;;;;;;12.20;6.10;;;9.30;99.70;;;;;;5011953;28;20449;-63
2022/01/02 17:09:24;;;;;;;13.03;5.83;;;9.20;99.70;;;;;;5011569;28;20476;-64
2022/01/02 17:11:52;;;;;;;12.80;5.50;;;9.20;99.70;;;;;;5004935;28;20485;-62
2022/01/02 17:14:21;;;;;;;14.30;5.80;;;9.20;99.70;;;;;;5008786;28;20481;-66
2022/01/02 17:16:47;;;;;;;20.20;6.50;;;9.20;99.70;;;;;;5008393;28;20453;-64
2022/01/02 17:19:14;;;;;;;13.70;6.10;;;9.20;99.70;;;;;;5009031;28;20854;-64
2022/01/02 17:21:41;;;;;;;15.53;6.23;;;9.20;99.70;;;;;;5012268;28;20441;-64
2022/01/02 17:24:07;;;;;;;14.07;5.73;;;9.10;99.70;;;;;;5036682;22;20498;-67
2022/01/02 17:26:34;;;;;;;12.20;6.03;;;9.10;99.70;;;;;;5011620;28;20542;-66
2022/01/02 17:29:01;;;;;;;15.00;6.13;;;9.00;99.70;;;;;;5008212;28;20464;-67
2022/01/02 17:31:29;;;;;;;13.40;6.70;;;8.90;99.70;;;;;;5011974;28;20481;-67
2022/01/02 17:33:56;;;;;;;17.27;7.10;;;8.80;99.70;;;;;;5004786;28;20979;-67
2022/01/02 17:36:22;;;;;;;23.30;9.50;;;8.60;99.70;;;;;;4992701;28;20450;-67
2022/01/02 17:38:49;;;;;;;30.90;10.90;;;8.50;99.70;;;;;;4985863;28;20454;-66
2022/01/02 17:41:17;;;;;;;27.37;9.30;;;8.40;99.70;;;;;;4992610;28;20669;-66
2022/01/02 17:43:44;;;;;;;15.60;6.80;;;8.40;99.70;;;;;;4992029;28;20474;-66
2022/01/02 17:46:12;;;;;;;15.00;7.20;;;8.30;99.70;;;;;;4994653;28;20461;-67
2022/01/02 17:48:40;;;;;;;19.10;8.03;;;8.20;99.70;;;;;;4993512;28;20450;-67
2022/01/02 17:51:06;;;;;;;19.77;8.20;;;8.10;99.70;;;;;;4993159;28;20509;-67